Time;durP1;ratioP1;P1;durP2;ratioP2;P2;SDS_P1;SDS_P2;PMS_P1;PMS_P2;Temp;Humidity;BMP_temperature;BMP_pressure;BME280_temperature;BME280_humidity;BME280_pressure;Samples;Min_cycle;Max_cycle;Signal;HPM_P1;HPM_P2
2021/04/19 00:02:00;;;;;;;18.20;13.57;;;;;;;;;;5056747;28;20204;-73
2021/04/19 00:05:10;;;;;;;19.90;13.20;;;;;;;;;;5056562;28;20215;-73
2021/04/19 00:08:14;;;;;;;19.93;13.47;;;;;;;;;;5056512;28;20216;-73
2021/04/19 00:11:18;;;;;;;19.83;14.10;;;;;;;;;;5044572;28;20543;-72
2021/04/19 00:14:22;;;;;;;21.60;14.97;;;;;;;;;;5056625;28;20695;-73
2021/04/19 00:17:26;;;;;;;22.10;14.73;;;;;;;;;;5056793;28;20176;-73
2021/04/19 00:20:31;;;;;;;23.90;14.07;;;;;;;;;;5057042;28;20180;-73
2021/04/19 00:23:36;;;;;;;19.47;13.60;;;;;;;;;;5056454;28;20196;-73
2021/04/19 00:26:40;;;;;;;20.77;14.37;;;;;;;;;;5056294;28;20622;-73
2021/04/19 00:29:44;;;;;;;22.67;15.13;;;;;;;;;;5043995;28;20582;-73
2021/04/19 00:32:49;;;;;;;19.23;14.73;;;;;;;;;;5056556;28;20551;-73
2021/04/19 00:35:53;;;;;;;21.03;14.50;;;;;;;;;;5056320;28;20618;-73
2021/04/19 00:38:57;;;;;;;18.27;14.50;;;;;;;;;;5044002;28;21069;-73
2021/04/19 00:42:02;;;;;;;22.07;15.33;;;;;;;;;;5056478;28;21112;-73
2021/04/19 00:45:07;;;;;;;19.70;14.77;;;;;;;;;;5056337;28;21216;-73
2021/04/19 00:48:12;;;;;;;19.77;14.33;;;;;;;;;;5056179;28;20606;-73
2021/04/19 00:51:16;;;;;;;20.83;14.00;;;;;;;;;;5055730;28;20546;-73
2021/04/19 00:54:21;;;;;;;24.07;14.40;;;;;;;;;;5056100;28;20629;-73
2021/04/19 00:57:28;;;;;;;20.60;14.47;;;;;;;;;;5055647;28;20557;-73
2021/04/19 01:00:35;;;;;;;19.67;13.97;;;;;;;;;;5055301;28;20535;-73
2021/04/19 01:03:41;;;;;;;24.10;14.87;;;;;;;;;;5055826;28;20883;-72
2021/04/19 01:06:46;;;;;;;22.40;15.27;;;;;;;;;;5055782;28;20535;-73
2021/04/19 01:09:51;;;;;;;27.10;17.47;;;;;;;;;;5043605;28;20531;-73
2021/04/19 01:12:56;;;;;;;26.70;17.43;;;;;;;;;;5043284;28;20547;-72
2021/04/19 01:16:02;;;;;;;21.93;15.90;;;;;;;;;;5043366;28;20598;-73
2021/04/19 01:19:06;;;;;;;21.07;14.33;;;;;;;;;;5043103;28;20558;-73
2021/04/19 01:22:10;;;;;;;22.57;14.77;;;;;;;;;;5055497;28;20543;-73
2021/04/19 01:25:27;;;;;;;22.80;16.00;;;;;;;;;;5054950;28;20646;-73
2021/04/19 01:28:32;;;;;;;22.83;15.13;;;;;;;;;;5055055;28;21184;-73
2021/04/19 01:31:36;;;;;;;24.73;15.47;;;;;;;;;;5055283;28;20870;-73
2021/04/19 01:34:46;;;;;;;21.80;15.30;;;;;;;;;;5042593;28;21220;-72
2021/04/19 01:37:50;;;;;;;25.60;15.43;;;;;;;;;;5054904;28;21050;-73
2021/04/19 01:40:55;;;;;;;23.70;15.63;;;;;;;;;;5055086;28;20597;-73
2021/04/19 01:44:02;;;;;;;25.17;15.30;;;;;;;;;;5042805;28;21205;-73
2021/04/19 01:47:07;;;;;;;25.13;15.67;;;;;;;;;;5055274;28;20539;-73
2021/04/19 01:50:15;;;;;;;24.60;16.37;;;;;;;;;;5042973;28;20524;-73
2021/04/19 01:53:20;;;;;;;24.47;15.87;;;;;;;;;;5054877;28;20903;-73
2021/04/19 01:56:25;;;;;;;24.73;16.13;;;;;;;;;;5042591;28;20539;-73
2021/04/19 01:59:30;;;;;;;22.63;16.70;;;;;;;;;;5042511;28;20548;-73
2021/04/19 02:02:48;;;;;;;25.17;16.70;;;;;;;;;;5042376;28;20544;-73
2021/04/19 02:06:05;;;;;;;23.73;15.90;;;;;;;;;;5042050;28;20610;-73
2021/04/19 02:09:22;;;;;;;23.23;16.37;;;;;;;;;;5054210;28;20594;-73
2021/04/19 02:12:44;;;;;;;20.53;15.30;;;;;;;;;;5042135;28;20915;-73
2021/04/19 02:16:01;;;;;;;25.47;17.47;;;;;;;;;;5042388;28;21173;-73
2021/04/19 02:19:31;;;;;;;29.93;18.20;;;;;;;;;;5041918;28;20556;-72
2021/04/19 02:22:39;;;;;;;26.40;16.80;;;;;;;;;;5054519;28;20543;-73
2021/04/19 02:25:48;;;;;;;24.17;16.90;;;;;;;;;;5041766;28;20634;-73
2021/04/19 02:29:04;;;;;;;26.77;17.37;;;;;;;;;;5030216;28;20646;-73
2021/04/19 02:32:19;;;;;;;27.07;18.27;;;;;;;;;;5041865;28;20543;-73
2021/04/19 02:35:26;;;;;;;28.63;19.07;;;;;;;;;;5030638;28;20617;-73
2021/04/19 02:38:50;;;;;;;26.73;17.00;;;;;;;;;;5054254;28;20539;-73
2021/04/19 02:41:56;;;;;;;22.97;16.17;;;;;;;;;;5019227;28;20551;-73
2021/04/19 02:45:02;;;;;;;24.07;16.43;;;;;;;;;;5042207;28;21168;-73
2021/04/19 02:48:16;;;;;;;29.63;18.97;;;;;;;;;;5042703;28;20638;-73
2021/04/19 02:51:29;;;;;;;28.87;18.57;;;;;;;;;;5041164;28;20590;-73
2021/04/19 02:54:37;;;;;;;30.53;18.77;;;;;;;;;;5053600;28;20629;-73
2021/04/19 02:57:50;;;;;;;35.93;20.63;;;;;;;;;;5053719;28;20562;-73
2021/04/19 03:00:54;;;;;;;33.37;20.70;;;;;;;;;;5021738;28;20595;-73
2021/04/19 03:04:05;;;;;;;30.37;19.83;;;;;;;;;;5028311;28;20633;-72
2021/04/19 03:07:10;;;;;;;31.80;19.03;;;;;;;;;;5041535;28;20598;-73
2021/04/19 03:10:19;;;;;;;31.57;20.53;;;;;;;;;;5041532;28;20591;-73
2021/04/19 03:13:26;;;;;;;32.67;20.47;;;;;;;;;;5043984;28;21055;-73
2021/04/19 03:16:38;;;;;;;37.30;20.20;;;;;;;;;;5060787;28;20542;-73
2021/04/19 03:19:48;;;;;;;26.13;17.63;;;;;;;;;;5060856;28;20542;-73
2021/04/19 03:22:54;;;;;;;30.40;18.23;;;;;;;;;;5060589;28;20538;-73
2021/04/19 03:26:03;;;;;;;28.33;17.87;;;;;;;;;;5058630;22;20973;-71
2021/04/19 03:29:08;;;;;;;29.63;18.27;;;;;;;;;;5038323;28;20614;-70
2021/04/19 03:32:31;;;;;;;26.13;17.33;;;;;;;;;;5040668;28;20555;-70
2021/04/19 03:35:39;;;;;;;30.93;18.73;;;;;;;;;;5023941;28;20627;-71
2021/04/19 03:38:49;;;;;;;30.23;18.07;;;;;;;;;;5021426;28;20540;-70
2021/04/19 03:41:58;;;;;;;31.03;19.20;;;;;;;;;;5010234;28;20556;-70
2021/04/19 03:45:07;;;;;;;28.73;17.83;;;;;;;;;;5032933;28;20636;-70
2021/04/19 03:48:38;;;;;;;30.40;19.50;;;;;;;;;;5033180;28;20608;-70
2021/04/19 03:51:53;;;;;;;31.37;19.70;;;;;;;;;;5021317;28;20549;-70
2021/04/19 03:54:59;;;;;;;33.00;19.70;;;;;;;;;;5009498;28;20997;-70
2021/04/19 03:58:08;;;;;;;33.17;20.50;;;;;;;;;;5020962;28;20560;-70
2021/04/19 04:01:20;;;;;;;31.53;20.17;;;;;;;;;;5032742;28;20592;-70
2021/04/19 04:04:30;;;;;;;33.80;20.60;;;;;;;;;;5020587;28;20626;-70
2021/04/19 04:07:41;;;;;;;31.43;19.90;;;;;;;;;;5013317;28;21111;-70
2021/04/19 04:10:50;;;;;;;32.03;20.00;;;;;;;;;;5001140;28;20541;-70
2021/04/19 04:13:55;;;;;;;32.43;20.13;;;;;;;;;;5001535;28;20627;-70
2021/04/19 04:17:01;;;;;;;33.53;20.00;;;;;;;;;;5012885;28;20600;-70
2021/04/19 04:20:25;;;;;;;28.83;19.00;;;;;;;;;;5012930;28;21102;-69
2021/04/19 04:23:38;;;;;;;29.07;19.00;;;;;;;;;;5013035;28;20960;-70
2021/04/19 04:26:42;;;;;;;32.50;19.33;;;;;;;;;;4977847;28;20631;-70
2021/04/19 04:29:47;;;;;;;28.33;18.50;;;;;;;;;;5000553;28;20648;-70
2021/04/19 04:33:06;;;;;;;29.00;18.93;;;;;;;;;;5000855;28;20897;-70
2021/04/19 04:36:16;;;;;;;32.30;20.63;;;;;;;;;;5009085;28;20623;-70
2021/04/19 04:39:23;;;;;;;30.00;19.63;;;;;;;;;;5016793;28;20553;-70
2021/04/19 04:42:30;;;;;;;33.10;20.40;;;;;;;;;;5036418;28;20560;-70
2021/04/19 04:45:35;;;;;;;28.40;18.60;;;;;;;;;;5023281;28;20651;-70
2021/04/19 04:48:59;;;;;;;31.77;20.80;;;;;;;;;;5035798;28;20623;-70
2021/04/19 04:52:06;;;;;;;35.20;20.00;;;;;;;;;;5035749;28;20587;-70
2021/04/19 04:55:13;;;;;;;29.37;18.90;;;;;;;;;;5036031;28;20624;-70
2021/04/19 04:58:18;;;;;;;31.40;19.93;;;;;;;;;;5035980;28;20546;-74
2021/04/19 05:01:25;;;;;;;35.70;18.53;;;;;;;;;;5035848;28;20956;-73
2021/04/19 05:04:30;;;;;;;34.90;19.73;;;;;;;;;;5023082;28;21009;-73
2021/04/19 05:07:36;;;;;;;27.60;18.83;;;;;;;;;;5028842;28;20579;-73
2021/04/19 05:10:40;;;;;;;46.93;20.20;;;;;;;;;;5035382;28;20622;-73
2021/04/19 05:13:44;;;;;;;27.87;18.63;;;;;;;;;;5023799;28;20544;-74
2021/04/19 05:16:48;;;;;;;33.43;18.53;;;;;;;;;;5012185;28;20547;-73
2021/04/19 05:19:53;;;;;;;31.10;19.70;;;;;;;;;;5023647;28;20539;-73
2021/04/19 05:22:57;;;;;;;29.00;18.67;;;;;;;;;;5035590;28;20544;-74
2021/04/19 05:26:02;;;;;;;38.90;18.87;;;;;;;;;;5035416;28;20946;-74
2021/04/19 05:29:06;;;;;;;27.93;17.57;;;;;;;;;;5035087;28;20607;-71
2021/04/19 05:32:12;;;;;;;30.70;19.10;;;;;;;;;;5023452;28;21078;-71
2021/04/19 05:35:17;;;;;;;31.83;20.00;;;;;;;;;;5022767;28;20648;-72
2021/04/19 05:38:23;;;;;;;33.40;20.43;;;;;;;;;;5035229;28;20600;-72
2021/04/19 05:41:27;;;;;;;28.07;19.67;;;;;;;;;;5022822;28;20560;-71
2021/04/19 05:44:32;;;;;;;34.43;20.37;;;;;;;;;;5035174;28;20627;-71
2021/04/19 05:47:37;;;;;;;32.30;20.43;;;;;;;;;;5034219;28;20607;-72
2021/04/19 05:50:42;;;;;;;35.33;22.17;;;;;;;;;;5021525;28;20592;-71
2021/04/19 05:53:54;;;;;;;34.30;22.50;;;;;;;;;;5022542;28;20552;-70
2021/04/19 05:57:32;;;;;;;31.57;21.43;;;;;;;;;;5034032;28;20563;-71
2021/04/19 06:01:07;;;;;;;34.50;20.70;;;;;;;;;;5022303;28;20181;-72
2021/04/19 06:04:21;;;;;;;35.77;21.63;;;;;;;;;;5022079;28;20221;-71
2021/04/19 06:07:41;;;;;;;34.30;21.50;;;;;;;;;;5034684;28;20181;-72
2021/04/19 06:11:48;;;;;;;33.57;22.20;;;;;;;;;;5022498;28;20201;-72
2021/04/19 06:15:13;;;;;;;30.60;19.77;;;;;;;;;;5013382;28;20216;-71
2021/04/19 06:18:24;;;;;;;31.30;20.53;;;;;;;;;;5021989;28;20204;-71
2021/04/19 06:21:29;;;;;;;29.47;19.43;;;;;;;;;;5022235;28;20181;-72
2021/04/19 06:24:34;;;;;;;33.10;19.53;;;;;;;;;;5034468;28;20216;-74
2021/04/19 06:27:38;;;;;;;29.17;19.10;;;;;;;;;;5010544;28;20204;-72
2021/04/19 06:30:45;;;;;;;30.47;19.27;;;;;;;;;;5010748;28;20228;-73
2021/04/19 06:34:03;;;;;;;29.53;20.27;;;;;;;;;;5033918;28;20189;-72
2021/04/19 06:37:08;;;;;;;33.33;24.20;;;;;;;;;;5010698;28;20177;-72
2021/04/19 06:40:12;;;;;;;35.23;23.27;;;;;;;;;;5032822;28;20201;-71
2021/04/19 06:43:18;;;;;;;30.83;21.03;;;;;;;;;;5034357;28;20204;-75
2021/04/19 06:46:29;;;;;;;29.47;20.33;;;;;;;;;;5034095;28;20671;-70
2021/04/19 06:49:35;;;;;;;36.47;23.73;;;;;;;;;;5009989;28;20220;-70
2021/04/19 06:52:47;;;;;;;41.67;25.97;;;;;;;;;;5034255;28;20173;-71
2021/04/19 06:55:51;;;;;;;46.63;29.40;;;;;;;;;;5021539;28;20564;-71
2021/04/19 06:58:56;;;;;;;53.87;34.73;;;;;;;;;;5032879;28;20180;-71
2021/04/19 07:02:03;;;;;;;55.17;36.97;;;;;;;;;;5033717;28;20521;-71
2021/04/19 07:05:08;;;;;;;45.60;27.50;;;;;;;;;;5033331;28;20216;-71
2021/04/19 07:08:28;;;;;;;42.00;27.00;;;;;;;;;;5033399;28;20184;-71
2021/04/19 07:11:37;;;;;;;49.50;32.97;;;;;;;;;;5033443;28;20174;-71
2021/04/19 07:14:41;;;;;;;43.40;28.10;;;;;;;;;;5033532;28;20216;-71
2021/04/19 07:17:49;;;;;;;34.63;23.83;;;;;;;;;;5020291;28;20360;-70
2021/04/19 07:20:54;;;;;;;36.23;25.57;;;;;;;;;;5014270;28;20181;-71
2021/04/19 07:24:03;;;;;;;30.07;21.37;;;;;;;;;;5012856;28;20217;-71
2021/04/19 07:27:11;;;;;;;26.30;17.83;;;;;;;;;;5001308;28;20209;-72
2021/04/19 07:30:16;;;;;;;46.73;30.20;;;;;;;;;;5013578;28;20205;-72
2021/04/19 07:33:28;;;;;;;29.60;20.30;;;;;;;;;;5015470;28;20189;-70
2021/04/19 07:36:32;;;;;;;39.47;18.57;;;;;;;;;;5032055;28;20193;-71
2021/04/19 07:39:40;;;;;;;27.27;18.73;;;;;;;;;;5013562;28;20174;-72
2021/04/19 07:42:44;;;;;;;28.03;19.83;;;;;;;;;;5001526;28;20181;-71
2021/04/19 07:46:07;;;;;;;43.10;29.53;;;;;;;;;;5001368;28;20225;-71
2021/04/19 07:49:11;;;;;;;27.47;19.53;;;;;;;;;;5013204;28;20186;-71
2021/04/19 07:52:15;;;;;;;25.43;18.33;;;;;;;;;;5013442;28;20182;-72
2021/04/19 07:55:41;;;;;;;28.60;19.20;;;;;;;;;;5013220;28;20217;-71
2021/04/19 07:58:46;;;;;;;26.60;17.97;;;;;;;;;;5001033;28;20181;-71
2021/04/19 08:01:57;;;;;;;25.60;16.87;;;;;;;;;;5025187;28;20196;-71
2021/04/19 08:05:05;;;;;;;26.60;18.07;;;;;;;;;;5016618;28;20224;-70
2021/04/19 08:08:10;;;;;;;24.97;18.17;;;;;;;;;;5014644;28;20197;-70
2021/04/19 08:11:16;;;;;;;25.50;17.50;;;;;;;;;;5021105;28;20217;-71
2021/04/19 08:14:20;;;;;;;26.43;17.60;;;;;;;;;;5025398;28;20596;-72
2021/04/19 08:17:32;;;;;;;27.57;17.67;;;;;;;;;;5036701;28;20544;-72
2021/04/19 08:20:38;;;;;;;26.50;18.00;;;;;;;;;;5036410;28;20193;-72
2021/04/19 08:23:44;;;;;;;23.70;16.83;;;;;;;;;;5036915;28;20181;-71
2021/04/19 08:26:56;;;;;;;25.77;18.07;;;;;;;;;;5036336;28;20196;-72
2021/04/19 08:30:01;;;;;;;27.97;18.50;;;;;;;;;;5024663;28;20208;-72
2021/04/19 08:33:06;;;;;;;25.87;17.83;;;;;;;;;;5035596;28;20181;-73
2021/04/19 08:36:12;;;;;;;27.93;18.07;;;;;;;;;;5036328;28;20196;-74
2021/04/19 08:39:16;;;;;;;22.67;16.00;;;;;;;;;;5036391;28;20185;-72
2021/04/19 08:42:21;;;;;;;22.77;16.67;;;;;;;;;;5036269;28;20177;-72
2021/04/19 08:45:26;;;;;;;26.53;17.47;;;;;;;;;;5035620;28;20220;-72
2021/04/19 08:48:32;;;;;;;29.07;16.33;;;;;;;;;;5035477;28;20181;-72
2021/04/19 08:51:36;;;;;;;22.97;15.70;;;;;;;;;;5024096;28;20219;-72
2021/04/19 08:54:41;;;;;;;24.10;16.13;;;;;;;;;;5023919;28;20232;-72
2021/04/19 08:57:46;;;;;;;29.40;17.90;;;;;;;;;;5036169;28;20210;-72
2021/04/19 09:00:52;;;;;;;30.67;18.53;;;;;;;;;;5023825;28;20180;-72
2021/04/19 09:04:07;;;;;;;23.77;17.17;;;;;;;;;;5022484;28;20231;-71
2021/04/19 09:07:28;;;;;;;26.90;16.83;;;;;;;;;;5023596;28;20200;-72
2021/04/19 09:11:00;;;;;;;23.00;15.97;;;;;;;;;;5035521;28;20216;-72
2021/04/19 09:14:06;;;;;;;21.37;15.57;;;;;;;;;;5035584;28;20260;-72
2021/04/19 09:17:23;;;;;;;27.43;15.73;;;;;;;;;;5023411;28;20674;-72
2021/04/19 09:20:34;;;;;;;20.23;15.43;;;;;;;;;;5022992;28;20189;-72
2021/04/19 09:23:38;;;;;;;22.33;14.63;;;;;;;;;;5011938;28;20260;-72
2021/04/19 09:26:52;;;;;;;19.30;14.93;;;;;;;;;;5022860;28;20215;-72
2021/04/19 09:29:57;;;;;;;22.57;15.63;;;;;;;;;;5014643;28;20204;-71
2021/04/19 09:33:04;;;;;;;24.03;16.13;;;;;;;;;;5030329;28;20204;-71
2021/04/19 09:36:08;;;;;;;22.23;15.73;;;;;;;;;;5030850;28;20192;-71
2021/04/19 09:39:42;;;;;;;22.73;16.03;;;;;;;;;;5033102;28;20208;-71
2021/04/19 09:43:06;;;;;;;24.93;15.93;;;;;;;;;;5003050;28;20192;-71
2021/04/19 09:46:16;;;;;;;23.47;15.70;;;;;;;;;;5020854;28;20201;-71
2021/04/19 09:49:21;;;;;;;21.67;15.13;;;;;;;;;;5020117;28;20201;-71
2021/04/19 09:52:25;;;;;;;21.37;15.17;;;;;;;;;;5010308;28;20204;-71
2021/04/19 09:55:30;;;;;;;23.00;16.30;;;;;;;;;;5028971;28;20248;-71
2021/04/19 09:58:40;;;;;;;22.33;14.60;;;;;;;;;;5014927;28;20204;-72
2021/04/19 10:01:50;;;;;;;22.67;13.47;;;;;;;;;;5032604;28;20610;-71
2021/04/19 10:04:55;;;;;;;17.57;12.40;;;;;;;;;;5022165;28;20228;-71
2021/04/19 10:08:04;;;;;;;16.77;12.50;;;;;;;;;;5026578;28;20571;-72
2021/04/19 10:11:08;;;;;;;20.23;13.23;;;;;;;;;;5016162;28;20231;-71
2021/04/19 10:14:14;;;;;;;26.37;13.00;;;;;;;;;;5025433;22;20247;-86
2021/04/19 10:17:21;;;;;;;20.67;12.40;;;;;;;;;;5023084;28;20219;-85
2021/04/19 10:20:27;;;;;;;16.07;11.70;;;;;;;;;;5003881;28;20200;-84
2021/04/19 10:23:39;;;;;;;16.50;11.33;;;;;;;;;;5003891;28;20591;-85
2021/04/19 10:26:43;;;;;;;17.17;10.47;;;;;;;;;;4999516;28;20240;-83
2021/04/19 10:29:47;;;;;;;15.87;12.10;;;;;;;;;;4993234;28;20197;-84
2021/04/19 10:32:51;;;;;;;18.30;10.43;;;;;;;;;;5013649;28;20180;-84
2021/04/19 10:35:56;;;;;;;17.03;10.13;;;;;;;;;;5004617;28;20588;-84
2021/04/19 10:39:12;;;;;;;16.67;10.50;;;;;;;;;;5027880;28;20592;-85
2021/04/19 10:42:27;;;;;;;15.57;11.50;;;;;;;;;;5016103;28;20200;-84
2021/04/19 10:45:44;;;;;;;15.40;10.93;;;;;;;;;;5011373;28;20232;-84
2021/04/19 10:48:49;;;;;;;16.87;11.57;;;;;;;;;;4992230;28;20204;-84
2021/04/19 10:51:59;;;;;;;15.83;10.67;;;;;;;;;;4992006;28;20209;-84
2021/04/19 10:55:06;;;;;;;18.40;9.67;;;;;;;;;;4992757;28;20185;-84
2021/04/19 10:58:10;;;;;;;16.30;11.27;;;;;;;;;;5014871;28;20173;-84
2021/04/19 11:01:23;;;;;;;14.77;10.83;;;;;;;;;;5014156;28;20181;-84
2021/04/19 11:04:28;;;;;;;14.77;10.67;;;;;;;;;;5014645;28;20536;-84
2021/04/19 11:07:38;;;;;;;18.17;11.30;;;;;;;;;;5013622;28;20216;-84
2021/04/19 11:10:42;;;;;;;23.97;12.63;;;;;;;;;;5029279;28;20231;-84
2021/04/19 11:13:46;;;;;;;17.17;12.30;;;;;;;;;;4991485;28;20212;-84
2021/04/19 11:17:07;;;;;;;18.90;12.63;;;;;;;;;;5018158;28;20224;-84
2021/04/19 11:20:26;;;;;;;20.27;12.40;;;;;;;;;;4992472;28;20572;-84
2021/04/19 11:23:32;;;;;;;21.10;12.57;;;;;;;;;;5032418;23;20646;-71
2021/04/19 11:26:38;;;;;;;19.33;12.23;;;;;;;;;;4993102;28;20213;-70
2021/04/19 11:29:43;;;;;;;16.03;11.30;;;;;;;;;;4989375;28;20214;-70
2021/04/19 11:33:00;;;;;;;16.33;12.00;;;;;;;;;;4989244;28;20568;-70
2021/04/19 11:36:06;;;;;;;16.37;10.87;;;;;;;;;;4992499;28;20237;-71
2021/04/19 11:39:19;;;;;;;19.93;10.60;;;;;;;;;;4977866;28;20566;-71
2021/04/19 11:42:34;;;;;;;16.40;10.30;;;;;;;;;;4993725;28;20177;-70
2021/04/19 11:45:38;;;;;;;13.07;9.33;;;;;;;;;;4997515;28;20609;-71
2021/04/19 11:48:45;;;;;;;10.43;8.10;;;;;;;;;;4996702;28;20201;-70
2021/04/19 11:51:50;;;;;;;9.00;7.07;;;;;;;;;;4987610;28;20680;-71
2021/04/19 11:54:54;;;;;;;41.07;8.20;;;;;;;;;;4994079;28;20234;-70
2021/04/19 11:57:58;;;;;;;10.60;7.57;;;;;;;;;;4982343;28;20186;-71
2021/04/19 12:01:04;;;;;;;10.13;8.17;;;;;;;;;;4994163;28;20178;-71
2021/04/19 12:04:11;;;;;;;14.70;9.57;;;;;;;;;;4993170;28;20185;-71
2021/04/19 12:07:15;;;;;;;14.57;9.27;;;;;;;;;;4993516;28;20190;-70
2021/04/19 12:10:20;;;;;;;34.40;11.43;;;;;;;;;;4993222;28;20645;-70
2021/04/19 12:13:24;;;;;;;17.53;11.57;;;;;;;;;;4993399;28;20197;-70
2021/04/19 12:16:29;;;;;;;16.90;11.37;;;;;;;;;;4992771;28;20580;-70
2021/04/19 12:19:33;;;;;;;16.03;11.40;;;;;;;;;;4993106;28;20193;-70
2021/04/19 12:22:39;;;;;;;16.93;11.70;;;;;;;;;;4993218;28;20209;-70
2021/04/19 12:25:43;;;;;;;40.50;25.57;;;;;;;;;;4974052;28;20225;-70
2021/04/19 12:28:48;;;;;;;47.33;12.40;;;;;;;;;;4978677;28;20564;-71
2021/04/19 12:31:52;;;;;;;14.10;11.70;;;;;;;;;;4992845;28;20233;-71
2021/04/19 12:34:56;;;;;;;15.37;11.60;;;;;;;;;;4993476;28;20232;-71
2021/04/19 12:38:00;;;;;;;17.47;12.20;;;;;;;;;;4993080;28;20552;-71
2021/04/19 12:41:04;;;;;;;18.23;13.63;;;;;;;;;;4992203;28;20660;-70
2021/04/19 12:44:09;;;;;;;19.03;12.73;;;;;;;;;;4993192;28;20193;-72
2021/04/19 12:47:13;;;;;;;16.97;10.93;;;;;;;;;;4980811;28;20197;-73
2021/04/19 12:50:17;;;;;;;16.37;11.73;;;;;;;;;;4972856;28;20656;-72
2021/04/19 12:53:22;;;;;;;17.67;11.73;;;;;;;;;;4978155;28;20189;-72
2021/04/19 12:56:27;;;;;;;18.47;11.17;;;;;;;;;;4991501;28;20229;-72
2021/04/19 12:59:31;;;;;;;32.83;11.83;;;;;;;;;;4991814;28;20739;-72
2021/04/19 13:02:35;;;;;;;13.77;10.60;;;;;;;;;;4993545;28;20664;-73
2021/04/19 13:05:39;;;;;;;16.23;9.80;;;;;;;;;;4995936;28;20230;-72
2021/04/19 13:08:44;;;;;;;12.87;9.53;;;;;;;;;;4995567;28;20190;-73
2021/04/19 13:11:48;;;;;;;14.57;11.40;;;;;;;;;;4994699;28;20745;-73
2021/04/19 13:14:52;;;;;;;11.43;9.03;;;;;;;;;;4996285;28;20233;-73
2021/04/19 13:17:56;;;;;;;13.57;10.17;;;;;;;;;;4996296;28;20186;-72
2021/04/19 13:21:04;;;;;;;11.10;7.23;;;;;;;;;;4996556;28;20628;-73
2021/04/19 13:24:08;;;;;;;18.93;6.37;;;;;;;;;;4995542;28;20201;-72
2021/04/19 13:27:13;;;;;;;10.63;8.37;;;;;;;;;;4995906;28;20182;-73
2021/04/19 13:30:18;;;;;;;11.53;7.40;;;;;;;;;;4995543;28;20193;-73
2021/04/19 13:33:22;;;;;;;11.80;8.23;;;;;;;;;;4994804;28;20221;-72
2021/04/19 13:36:26;;;;;;;44.23;9.57;;;;;;;;;;4995512;28;20214;-74
2021/04/19 13:39:31;;;;;;;10.50;6.50;;;;;;;;;;4995734;28;20561;-73
2021/04/19 13:42:36;;;;;;;11.97;7.80;;;;;;;;;;4995560;28;20190;-73
2021/04/19 13:45:40;;;;;;;9.43;5.77;;;;;;;;;;4995643;28;20557;-73
2021/04/19 13:48:44;;;;;;;8.20;5.90;;;;;;;;;;4995775;28;20182;-73
2021/04/19 13:51:49;;;;;;;12.67;6.83;;;;;;;;;;4995322;28;20214;-73
2021/04/19 13:54:54;;;;;;;14.47;9.27;;;;;;;;;;4993989;28;20562;-73
2021/04/19 13:57:58;;;;;;;30.77;7.33;;;;;;;;;;4994827;28;20519;-73
2021/04/19 14:01:03;;;;;;;6.37;5.07;;;;;;;;;;4995141;28;20190;-73
2021/04/19 14:04:07;;;;;;;11.60;6.27;;;;;;;;;;4994416;28;20190;-74
2021/04/19 14:07:12;;;;;;;7.10;5.00;;;;;;;;;;4994853;28;20186;-74
2021/04/19 14:10:16;;;;;;;11.23;6.43;;;;;;;;;;4994352;28;20665;-72
2021/04/19 14:13:21;;;;;;;18.47;5.70;;;;;;;;;;4975517;28;20222;-73
2021/04/19 14:16:26;;;;;;;15.93;6.93;;;;;;;;;;4975860;28;20697;-73
2021/04/19 14:19:30;;;;;;;17.97;11.40;;;;;;;;;;4993210;28;20182;-73
2021/04/19 14:22:36;;;;;;;7.63;4.60;;;;;;;;;;4994273;28;20213;-72
2021/04/19 14:25:40;;;;;;;5.67;4.07;;;;;;;;;;4995000;28;20217;-72
2021/04/19 14:28:53;;;;;;;5.13;3.80;;;;;;;;;;4995206;28;20186;-73
2021/04/19 14:31:59;;;;;;;6.13;3.77;;;;;;;;;;4994139;28;20226;-72
2021/04/19 14:35:04;;;;;;;9.40;3.83;;;;;;;;;;4994462;28;20226;-72
2021/04/19 14:38:08;;;;;;;4.37;3.43;;;;;;;;;;4982673;28;20194;-72
2021/04/19 14:41:12;;;;;;;7.00;4.03;;;;;;;;;;4993966;28;20198;-72
2021/04/19 14:44:16;;;;;;;5.23;3.50;;;;;;;;;;4994011;28;20190;-72
2021/04/19 14:47:20;;;;;;;7.23;5.43;;;;;;;;;;4994056;28;20633;-72
2021/04/19 14:50:24;;;;;;;10.67;5.70;;;;;;;;;;4994042;28;20198;-71
2021/04/19 14:53:29;;;;;;;7.20;4.70;;;;;;;;;;4994009;28;20209;-72
2021/04/19 14:56:33;;;;;;;6.23;5.10;;;;;;;;;;4993903;28;20186;-72
2021/04/19 14:59:37;;;;;;;7.27;4.17;;;;;;;;;;4994364;28;20202;-73
2021/04/19 15:02:41;;;;;;;8.83;3.97;;;;;;;;;;4993935;28;20182;-72
2021/04/19 15:05:46;;;;;;;4.50;2.80;;;;;;;;;;4982199;28;20222;-73
2021/04/19 15:08:50;;;;;;;6.43;3.53;;;;;;;;;;4994300;28;20201;-72
2021/04/19 15:11:57;;;;;;;6.40;3.40;;;;;;;;;;4991440;28;20538;-74
2021/04/19 15:15:01;;;;;;;6.80;3.10;;;;;;;;;;4990436;28;20213;-74
2021/04/19 15:18:06;;;;;;;6.63;3.10;;;;;;;;;;4970401;28;20178;-73
2021/04/19 15:21:10;;;;;;;5.57;3.23;;;;;;;;;;4970839;28;20182;-73
2021/04/19 15:24:15;;;;;;;4.07;2.67;;;;;;;;;;4970240;28;20202;-73
2021/04/19 15:27:30;;;;;;;3.47;2.70;;;;;;;;;;4970733;28;20179;-73
2021/04/19 15:30:35;;;;;;;3.30;2.87;;;;;;;;;;4981230;28;20183;-73
2021/04/19 15:33:39;;;;;;;4.43;2.93;;;;;;;;;;4988370;28;20209;-74
2021/04/19 15:36:46;;;;;;;4.80;3.00;;;;;;;;;;4970594;28;20174;-77
2021/04/19 15:39:50;;;;;;;3.97;3.30;;;;;;;;;;4987101;28;20205;-76
2021/04/19 15:42:54;;;;;;;4.03;3.40;;;;;;;;;;4989545;28;20186;-77
2021/04/19 15:45:59;;;;;;;3.70;3.10;;;;;;;;;;4977905;28;20222;-76
2021/04/19 15:49:04;;;;;;;4.23;3.70;;;;;;;;;;4978168;28;20190;-76
2021/04/19 15:52:09;;;;;;;5.70;5.13;;;;;;;;;;4970371;28;20665;-75
2021/04/19 15:55:13;;;;;;;5.93;4.30;;;;;;;;;;4986319;28;20209;-76
2021/04/19 15:58:17;;;;;;;6.17;3.73;;;;;;;;;;4990252;28;20182;-76
2021/04/19 16:01:22;;;;;;;4.10;3.70;;;;;;;;;;4989587;28;20182;-75
2021/04/19 16:04:26;;;;;;;5.77;4.10;;;;;;;;;;4989310;28;20565;-77
2021/04/19 16:07:30;;;;;;;5.97;3.70;;;;;;;;;;4990037;28;20202;-76
2021/04/19 16:10:35;;;;;;;4.43;3.73;;;;;;;;;;4989911;28;20182;-75
2021/04/19 16:13:49;;;;;;;3.97;3.17;;;;;;;;;;4990390;28;20633;-76
2021/04/19 16:16:53;;;;;;;4.70;3.70;;;;;;;;;;4990208;28;20198;-76
2021/04/19 16:19:58;;;;;;;4.23;3.70;;;;;;;;;;4988841;28;20198;-76
2021/04/19 16:23:02;;;;;;;3.30;3.00;;;;;;;;;;4989678;28;20210;-76
2021/04/19 16:26:06;;;;;;;5.90;3.90;;;;;;;;;;4989609;28;20573;-76
2021/04/19 16:29:10;;;;;;;4.27;3.43;;;;;;;;;;4970163;28;20198;-76
2021/04/19 16:32:16;;;;;;;5.57;4.07;;;;;;;;;;4968898;28;20546;-76
2021/04/19 16:35:21;;;;;;;5.77;4.53;;;;;;;;;;4991469;28;20218;-77
2021/04/19 16:38:25;;;;;;;4.17;3.73;;;;;;;;;;4994524;28;20538;-76
2021/04/19 16:41:29;;;;;;;4.10;3.57;;;;;;;;;;4994094;28;20179;-73
2021/04/19 16:44:34;;;;;;;5.33;4.43;;;;;;;;;;4992483;28;20210;-73
2021/04/19 16:47:38;;;;;;;6.37;4.33;;;;;;;;;;4992618;28;20194;-74
2021/04/19 16:50:43;;;;;;;4.70;4.27;;;;;;;;;;4992594;28;20210;-74
2021/04/19 16:53:47;;;;;;;6.67;4.70;;;;;;;;;;4993229;28;20573;-74
2021/04/19 16:56:50;;;;;;;4.93;4.20;;;;;;;;;;4992301;28;20186;-74
2021/04/19 16:59:55;;;;;;;5.93;4.70;;;;;;;;;;4992186;28;20201;-74
2021/04/19 17:02:59;;;;;;;5.77;4.50;;;;;;;;;;4988335;28;20194;-74
2021/04/19 17:06:04;;;;;;;7.03;4.80;;;;;;;;;;4991742;28;20213;-74
2021/04/19 17:09:08;;;;;;;8.53;5.07;;;;;;;;;;4991858;28;20183;-74
2021/04/19 17:12:12;;;;;;;5.57;4.90;;;;;;;;;;4990431;28;20649;-74
2021/04/19 17:15:36;;;;;;;6.37;5.00;;;;;;;;;;4983226;28;20222;-74
2021/04/19 17:18:43;;;;;;;8.03;6.33;;;;;;;;;;4989930;28;20186;-74
2021/04/19 17:21:47;;;;;;;8.17;5.90;;;;;;;;;;4991325;28;20197;-74
2021/04/19 17:24:52;;;;;;;7.23;5.47;;;;;;;;;;4991924;28;20712;-74
2021/04/19 17:27:57;;;;;;;7.00;5.80;;;;;;;;;;4991462;28;20186;-74
2021/04/19 17:31:01;;;;;;;10.87;7.27;;;;;;;;;;4992298;28;20190;-75
2021/04/19 17:34:08;;;;;;;14.37;9.23;;;;;;;;;;4991339;28;20213;-73
2021/04/19 17:37:14;;;;;;;11.43;7.57;;;;;;;;;;4991982;28;20186;-73
2021/04/19 17:40:19;;;;;;;7.83;6.73;;;;;;;;;;4973099;28;20187;-73
2021/04/19 17:43:23;;;;;;;8.97;6.33;;;;;;;;;;4991889;28;20182;-73
2021/04/19 17:46:27;;;;;;;7.53;6.13;;;;;;;;;;4972772;28;20230;-73
2021/04/19 17:49:31;;;;;;;8.03;6.83;;;;;;;;;;4972491;28;20187;-73
2021/04/19 17:52:35;;;;;;;9.73;6.13;;;;;;;;;;4985899;28;20194;-74
2021/04/19 17:55:40;;;;;;;9.33;6.93;;;;;;;;;;4990686;28;20569;-74
2021/04/19 17:58:46;;;;;;;9.60;6.57;;;;;;;;;;4971542;28;20225;-73
2021/04/19 18:01:50;;;;;;;8.50;6.73;;;;;;;;;;4980403;28;20194;-73
2021/04/19 18:04:57;;;;;;;9.90;7.10;;;;;;;;;;4991974;28;20218;-73
2021/04/19 18:08:15;;;;;;;9.10;7.13;;;;;;;;;;4991662;28;20190;-73
2021/04/19 18:11:19;;;;;;;11.10;7.67;;;;;;;;;;4991064;28;20187;-73
2021/04/19 18:14:23;;;;;;;9.03;6.83;;;;;;;;;;4991307;28;20211;-73
2021/04/19 18:17:28;;;;;;;9.37;7.37;;;;;;;;;;4991608;28;20206;-73
2021/04/19 18:20:33;;;;;;;9.67;8.03;;;;;;;;;;4990642;28;20645;-73